createdAt,value
2018-07-07T00:00:35.011Z,63.32
2018-07-07T00:01:35.003Z,62.65
2018-07-07T00:02:35.011Z,62.65
2018-07-07T00:03:35.008Z,64.28
2018-07-07T00:04:35.013Z,64.56
2018-07-07T00:05:35.011Z,64.56
2018-07-07T00:06:35.015Z,63.99
2018-07-07T00:07:35.016Z,63.80
2018-07-07T00:08:35.017Z,64.09
2018-07-07T00:09:35.020Z,64.15
2018-07-07T00:10:35.022Z,65.11
2018-07-07T00:11:35.026Z,64.82
2018-07-07T00:12:35.036Z,65.11
2018-07-07T00:13:35.028Z,65.88
2018-07-07T00:14:35.029Z,66.16
2018-07-07T00:15:35.033Z,66.16
2018-07-07T00:16:35.033Z,65.78
2018-07-07T00:17:35.034Z,65.88
2018-07-07T00:18:35.037Z,65.97
2018-07-07T00:19:35.040Z,66.45
2018-07-07T00:20:35.040Z,65.88
2018-07-07T00:21:35.044Z,67.31
2018-07-07T00:22:35.045Z,66.74
2018-07-07T00:23:35.049Z,67.41
2018-07-07T00:24:35.048Z,67.41
2018-07-07T00:25:35.050Z,67.60
2018-07-07T00:26:35.051Z,69.03
2018-07-07T00:27:35.054Z,69.23
2018-07-07T00:28:35.055Z,69.03
2018-07-07T00:29:35.059Z,67.41
2018-07-07T00:30:35.059Z,67.60
2018-07-07T00:31:35.059Z,67.88
2018-07-07T00:32:35.062Z,68.46
2018-07-07T00:33:35.063Z,67.98
2018-07-07T00:34:35.066Z,68.74
2018-07-07T00:35:35.069Z,69.32
2018-07-07T00:36:35.070Z,69.03
2018-07-07T00:37:35.070Z,69.32
2018-07-07T00:38:35.072Z,69.13
2018-07-07T00:39:35.074Z,68.84
2018-07-07T00:40:35.076Z,69.80
2018-07-07T00:41:35.078Z,71.20
2018-07-07T00:42:35.078Z,71.58
2018-07-07T00:43:35.080Z,71.97
2018-07-07T00:44:35.081Z,72.06
2018-07-07T00:45:35.083Z,73.02
2018-07-07T00:46:35.084Z,73.50
2018-07-07T00:47:35.085Z,73.88
2018-07-07T00:48:35.087Z,73.97
2018-07-07T00:49:35.092Z,74.65
2018-07-07T00:50:35.092Z,74.65
2018-07-07T00:51:35.093Z,75.12
2018-07-07T00:52:35.093Z,75.02
2018-07-07T00:53:35.094Z,75.31
2018-07-07T00:54:35.099Z,75.31
2018-07-07T00:55:35.098Z,75.51
2018-07-07T00:56:35.100Z,75.79
2018-07-07T00:57:35.100Z,75.79
2018-07-07T00:58:35.102Z,76.18
2018-07-07T00:59:35.109Z,76.56
2018-07-07T01:00:35.156Z,76.75
2018-07-07T01:01:35.106Z,76.37
2018-07-07T01:02:35.108Z,76.56
2018-07-07T01:03:35.110Z,76.27
2018-07-07T01:04:35.111Z,76.62
2018-07-07T01:05:35.113Z,76.75
2018-07-07T01:06:35.114Z,77.00
2018-07-07T01:07:35.115Z,77.38
2018-07-07T01:08:35.115Z,77.09
2018-07-07T01:09:35.118Z,77.00
2018-07-07T01:10:35.119Z,77.00
2018-07-07T01:11:35.123Z,76.90
2018-07-07T01:12:35.121Z,77.00
2018-07-07T01:13:35.121Z,77.19
2018-07-07T01:14:35.124Z,77.48
2018-07-07T01:15:35.127Z,77.38
2018-07-07T01:16:35.125Z,77.95
2018-07-07T01:17:35.129Z,78.14
2018-07-07T01:18:35.129Z,78.34
2018-07-07T01:19:35.130Z,77.95
2018-07-07T01:20:35.131Z,78.19
2018-07-07T01:21:35.132Z,77.99
2018-07-07T01:22:35.134Z,78.19
2018-07-07T01:23:35.137Z,78.09
2018-07-07T01:24:35.136Z,77.90
2018-07-07T01:25:35.136Z,77.61
2018-07-07T01:26:35.139Z,77.99
2018-07-07T01:27:35.139Z,77.80
2018-07-07T01:28:35.141Z,77.80
2018-07-07T01:29:35.142Z,78.19
2018-07-07T01:30:35.143Z,77.70
2018-07-07T01:31:35.146Z,77.90
2018-07-07T01:32:35.146Z,78.28
2018-07-07T01:33:35.147Z,78.28
2018-07-07T01:34:35.149Z,78.28
2018-07-07T01:35:35.152Z,77.99
2018-07-07T01:36:35.151Z,78.09
2018-07-07T01:37:35.153Z,78.28
2018-07-07T01:38:35.154Z,77.70
2018-07-07T01:39:35.156Z,77.99
2018-07-07T01:40:35.156Z,78.09
2018-07-07T01:41:35.158Z,78.22
2018-07-07T01:42:35.159Z,78.13
2018-07-07T01:43:35.164Z,77.94
2018-07-07T01:44:35.163Z,78.32
2018-07-07T01:45:35.163Z,77.84
2018-07-07T01:46:35.165Z,78.22
2018-07-07T01:47:35.167Z,77.84
2018-07-07T01:48:35.198Z,78.32
2018-07-07T01:49:35.171Z,77.94
2018-07-07T01:50:35.169Z,77.94
2018-07-07T01:51:35.172Z,77.84
2018-07-07T01:52:35.172Z,77.08
2018-07-07T01:53:35.174Z,77.84
2018-07-07T01:54:35.176Z,77.75
2018-07-07T01:55:35.177Z,77.55
2018-07-07T01:56:35.177Z,76.98
2018-07-07T01:57:35.180Z,77.08
2018-07-07T01:58:35.181Z,77.26
2018-07-07T01:59:35.184Z,77.08
2018-07-07T02:00:35.210Z,77.36
2018-07-07T02:01:35.184Z,77.55
2018-07-07T02:02:35.188Z,76.98
2018-07-07T02:03:35.187Z,77.36
2018-07-07T02:04:35.188Z,77.46
2018-07-07T02:05:35.191Z,76.89
2018-07-07T02:06:35.193Z,76.98
2018-07-07T02:07:35.194Z,76.89
2018-07-07T02:08:35.196Z,76.98
2018-07-07T02:09:35.196Z,77.75
2018-07-07T02:10:35.200Z,76.79
2018-07-07T02:11:35.200Z,76.73
2018-07-07T02:12:35.200Z,77.02
2018-07-07T02:13:35.202Z,77.50
2018-07-07T02:14:35.205Z,76.92
2018-07-07T02:15:35.207Z,76.82
2018-07-07T02:16:35.206Z,77.40
2018-07-07T02:17:35.208Z,77.21
2018-07-07T02:18:35.211Z,77.59
2018-07-07T02:19:35.213Z,76.73
2018-07-07T02:20:35.212Z,77.40
2018-07-07T02:21:35.218Z,77.40
2018-07-07T02:22:35.216Z,76.54
2018-07-07T02:23:35.218Z,76.64
2018-07-07T02:24:35.218Z,77.02
2018-07-07T02:25:35.221Z,77.02
2018-07-07T02:26:35.223Z,77.11
2018-07-07T02:27:35.225Z,77.11
2018-07-07T02:28:35.224Z,77.59
2018-07-07T02:29:35.229Z,77.21
2018-07-07T02:30:35.229Z,77.97
2018-07-07T02:31:35.231Z,77.50
2018-07-07T02:32:35.233Z,77.69
2018-07-07T02:33:35.235Z,77.97
2018-07-07T02:34:35.236Z,77.69
2018-07-07T02:35:35.238Z,77.11
2018-07-07T02:36:35.238Z,77.97
2018-07-07T02:37:35.240Z,76.82
2018-07-07T02:38:35.241Z,77.59
2018-07-07T02:39:35.245Z,76.02
2018-07-07T02:40:35.247Z,75.93
2018-07-07T02:41:35.247Z,76.02
2018-07-07T02:42:35.248Z,76.12
2018-07-07T02:43:35.251Z,76.21
2018-07-07T02:44:35.250Z,76.12
2018-07-07T02:45:35.252Z,76.31
2018-07-07T02:46:35.260Z,76.50
2018-07-07T02:47:35.258Z,76.40
2018-07-07T02:48:35.258Z,75.83
2018-07-07T02:49:35.262Z,75.93
2018-07-07T02:50:35.308Z,76.69
2018-07-07T02:51:35.264Z,76.12
2018-07-07T02:52:35.274Z,76.31
2018-07-07T02:53:35.265Z,76.60
2018-07-07T02:54:35.267Z,75.73
2018-07-07T02:55:35.269Z,76.31
2018-07-07T02:56:35.276Z,75.73
2018-07-07T02:57:35.272Z,75.54
2018-07-07T02:58:35.273Z,75.93
2018-07-07T02:59:35.278Z,75.64
2018-07-07T03:00:35.277Z,76.21
2018-07-07T03:01:35.278Z,75.26
2018-07-07T03:02:35.280Z,75.54
2018-07-07T03:03:35.282Z,75.45
2018-07-07T03:04:35.282Z,75.45
2018-07-07T03:05:35.283Z,75.83
2018-07-07T03:06:35.285Z,75.93
2018-07-07T03:07:35.287Z,75.93
2018-07-07T03:08:35.291Z,75.93
2018-07-07T03:09:35.289Z,75.35
2018-07-07T03:10:35.292Z,75.73
2018-07-07T03:11:35.300Z,75.73
2018-07-07T03:12:35.296Z,75.54
2018-07-07T03:13:35.295Z,75.93
2018-07-07T03:14:35.299Z,75.45
2018-07-07T03:15:35.299Z,76.12
2018-07-07T03:16:35.300Z,76.12
2018-07-07T03:17:35.303Z,76.12
2018-07-07T03:18:35.303Z,76.40
2018-07-07T03:19:35.304Z,75.54
2018-07-07T03:20:35.305Z,76.02
2018-07-07T03:21:35.308Z,75.83
2018-07-07T03:22:35.310Z,76.12
2018-07-07T03:23:35.311Z,75.83
2018-07-07T03:24:35.312Z,74.93
2018-07-07T03:25:35.313Z,75.79
2018-07-07T03:26:35.315Z,75.31
2018-07-07T03:27:35.320Z,75.79
2018-07-07T03:28:35.317Z,75.51
2018-07-07T03:29:35.319Z,75.60
2018-07-07T03:30:35.322Z,75.60
2018-07-07T03:31:35.321Z,75.60
2018-07-07T03:32:35.323Z,76.18
2018-07-07T03:33:35.323Z,75.73
2018-07-07T03:34:35.325Z,76.08
2018-07-07T03:35:35.326Z,75.79
2018-07-07T03:36:35.329Z,75.70
2018-07-07T03:37:35.329Z,76.18
2018-07-07T03:38:35.330Z,75.51
2018-07-07T03:39:35.332Z,75.70
2018-07-07T03:40:35.333Z,75.79
2018-07-07T03:41:35.334Z,75.51
2018-07-07T03:42:35.336Z,75.70
2018-07-07T03:43:35.335Z,74.65
2018-07-07T03:44:35.338Z,74.99
2018-07-07T03:45:35.338Z,75.02
2018-07-07T03:46:35.340Z,75.18
2018-07-07T03:47:35.341Z,74.51
2018-07-07T03:48:35.342Z,75.09
2018-07-07T03:49:35.343Z,74.04
2018-07-07T03:50:35.345Z,75.09
2018-07-07T03:51:35.345Z,75.76
2018-07-07T03:52:35.347Z,74.80
2018-07-07T03:53:35.347Z,75.18
2018-07-07T03:54:35.349Z,74.61
2018-07-07T03:55:35.350Z,75.56
2018-07-07T03:56:35.349Z,74.70
2018-07-07T03:57:35.353Z,74.80
2018-07-07T03:58:35.352Z,75.02
2018-07-07T03:59:35.355Z,75.47
2018-07-07T04:00:35.356Z,75.56
2018-07-07T04:01:35.355Z,74.61
2018-07-07T04:02:35.356Z,75.18
2018-07-07T04:03:35.359Z,74.80
2018-07-07T04:04:35.358Z,75.47
2018-07-07T04:05:35.359Z,74.70
2018-07-07T04:06:35.363Z,75.27
2018-07-07T04:07:35.363Z,74.80
2018-07-07T04:08:35.363Z,75.66
2018-07-07T04:09:35.364Z,74.61
2018-07-07T04:10:35.364Z,74.61
2018-07-07T04:11:35.369Z,75.09
2018-07-07T04:12:35.366Z,75.85
2018-07-07T04:13:35.367Z,75.41
2018-07-07T04:14:35.369Z,75.79
2018-07-07T04:15:35.370Z,74.90
2018-07-07T04:16:35.369Z,75.31
2018-07-07T04:17:35.372Z,75.31
2018-07-07T04:18:35.372Z,75.41
2018-07-07T04:19:35.374Z,75.60
2018-07-07T04:20:35.374Z,75.41
2018-07-07T04:21:35.376Z,75.02
2018-07-07T04:22:35.377Z,74.65
2018-07-07T04:23:35.380Z,74.90
2018-07-07T04:24:35.378Z,73.94
2018-07-07T04:25:35.379Z,74.22
2018-07-07T04:26:35.381Z,74.80
2018-07-07T04:27:35.381Z,74.61
2018-07-07T04:28:35.411Z,74.51
2018-07-07T04:29:35.381Z,73.94
2018-07-07T04:30:35.422Z,74.04
2018-07-07T04:31:35.388Z,74.51
2018-07-07T04:32:35.386Z,74.45
2018-07-07T04:33:35.387Z,74.26
2018-07-07T04:34:35.388Z,74.45
2018-07-07T04:35:35.390Z,74.65
2018-07-07T04:36:35.389Z,74.26
2018-07-07T04:37:35.392Z,74.84
2018-07-07T04:38:35.392Z,74.45
2018-07-07T04:39:35.394Z,74.45
2018-07-07T04:40:35.395Z,74.58
2018-07-07T04:41:35.396Z,74.58
2018-07-07T04:42:35.396Z,74.77
2018-07-07T04:43:35.396Z,74.49
2018-07-07T04:44:35.399Z,74.58
2018-07-07T04:45:35.400Z,74.58
2018-07-07T04:46:35.402Z,74.30
2018-07-07T04:47:35.402Z,75.54
2018-07-07T04:48:35.403Z,75.29
2018-07-07T04:49:35.407Z,74.58
2018-07-07T04:50:35.406Z,74.77
2018-07-07T04:51:35.406Z,75.35
2018-07-07T04:52:35.409Z,74.49
2018-07-07T04:53:35.409Z,74.68
2018-07-07T04:54:35.411Z,74.87
2018-07-07T04:55:35.413Z,74.49
2018-07-07T04:56:35.414Z,74.58
2018-07-07T04:57:35.415Z,74.68
2018-07-07T04:58:35.414Z,75.35
2018-07-07T04:59:35.418Z,74.91
2018-07-07T05:00:35.418Z,74.43
2018-07-07T05:01:35.420Z,74.72
2018-07-07T05:02:35.422Z,74.62
2018-07-07T05:03:35.424Z,74.82
2018-07-07T05:04:35.432Z,74.82
2018-07-07T05:05:35.426Z,75.39
2018-07-07T05:06:35.428Z,75.39
2018-07-07T05:07:35.428Z,75.68
2018-07-07T05:08:35.428Z,75.33
2018-07-07T05:09:35.433Z,75.81
2018-07-07T05:10:35.438Z,75.71
2018-07-07T05:11:35.436Z,75.81
2018-07-07T05:12:35.437Z,75.85
2018-07-07T05:13:35.440Z,76.14
2018-07-07T05:14:35.441Z,76.23
2018-07-07T05:15:35.493Z,75.65
2018-07-07T05:16:35.444Z,75.85
2018-07-07T05:17:35.447Z,76.17
2018-07-07T05:18:35.447Z,75.98
2018-07-07T05:19:35.451Z,75.79
2018-07-07T05:20:35.451Z,75.89
2018-07-07T05:21:35.455Z,76.46
2018-07-07T05:22:35.459Z,76.84
2018-07-07T05:23:35.460Z,76.37
2018-07-07T05:24:35.462Z,77.71
2018-07-07T05:25:35.464Z,77.65
2018-07-07T05:26:35.467Z,77.75
2018-07-07T05:27:35.469Z,78.75
2018-07-07T05:28:35.474Z,78.69
2018-07-07T05:29:35.477Z,78.27
2018-07-07T05:30:35.480Z,79.36
2018-07-07T05:31:35.484Z,78.88
2018-07-07T05:32:35.485Z,79.46
2018-07-07T05:33:35.492Z,79.07
2018-07-07T05:34:35.494Z,78.88
2018-07-07T05:35:35.499Z,79.11
2018-07-07T05:36:35.502Z,78.28
2018-07-07T05:37:35.507Z,76.92
2018-07-07T05:38:35.515Z,75.28
2018-07-07T05:39:35.518Z,74.74
2018-07-07T05:40:35.522Z,74.97
2018-07-07T05:41:35.528Z,73.85
2018-07-07T05:42:35.534Z,72.56
2018-07-07T05:43:35.540Z,72.85
2018-07-07T05:44:35.547Z,73.30
2018-07-07T05:45:35.553Z,74.16
2018-07-07T05:46:35.558Z,75.13
2018-07-07T05:47:35.566Z,75.51
2018-07-07T05:48:35.569Z,74.99
2018-07-07T05:49:35.576Z,75.76
2018-07-07T05:50:35.582Z,76.11
2018-07-07T05:51:35.589Z,76.59
2018-07-07T05:52:35.595Z,77.33
2018-07-07T05:53:35.604Z,78.15
2018-07-07T05:54:35.606Z,78.02
2018-07-07T05:55:35.611Z,78.59
2018-07-07T05:56:35.616Z,79.03
2018-07-07T05:57:35.623Z,79.52
2018-07-07T05:58:35.629Z,79.99
2018-07-07T05:59:35.634Z,80.15
2018-07-07T06:00:35.638Z,80.53
2018-07-07T06:01:35.645Z,80.28
2018-07-07T06:02:35.649Z,80.19
2018-07-07T06:03:35.653Z,80.47
2018-07-07T06:04:35.660Z,80.19
2018-07-07T06:05:35.664Z,80.47
2018-07-07T06:06:35.668Z,80.53
2018-07-07T06:07:35.674Z,80.34
2018-07-07T06:08:35.677Z,80.47
2018-07-07T06:09:35.681Z,80.47
2018-07-07T06:10:35.687Z,80.57
2018-07-07T06:11:35.692Z,80.57
2018-07-07T06:12:35.695Z,80.47
2018-07-07T06:13:35.700Z,80.57
2018-07-07T06:14:35.705Z,80.47
2018-07-07T06:15:35.709Z,80.47
2018-07-07T06:16:35.713Z,80.19
2018-07-07T06:17:35.716Z,80.57
2018-07-07T06:18:35.721Z,80.28
2018-07-07T06:19:35.724Z,80.57
2018-07-07T06:20:35.727Z,80.57
2018-07-07T06:21:35.733Z,79.61
2018-07-07T06:22:35.737Z,79.90
2018-07-07T06:23:35.740Z,79.90
2018-07-07T06:24:35.745Z,79.90
2018-07-07T06:25:35.749Z,80.28
2018-07-07T06:26:35.836Z,80.66
2018-07-07T06:27:35.758Z,79.52
2018-07-07T06:28:35.761Z,79.52
2018-07-07T06:29:35.766Z,79.13
2018-07-07T06:30:35.770Z,79.22
2018-07-07T06:31:35.772Z,79.52
2018-07-07T06:32:35.777Z,79.99
2018-07-07T06:33:35.781Z,79.32
2018-07-07T06:34:35.786Z,79.03
2018-07-07T06:35:35.788Z,78.94
2018-07-07T06:36:35.790Z,79.42
2018-07-07T06:37:35.796Z,79.32
2018-07-07T06:38:35.800Z,79.03
2018-07-07T06:39:35.804Z,79.22
2018-07-07T06:40:35.807Z,78.55
2018-07-07T06:41:35.811Z,78.50
2018-07-07T06:42:35.814Z,78.78
2018-07-07T06:43:35.830Z,78.69
2018-07-07T06:44:35.823Z,77.83
2018-07-07T06:45:35.827Z,77.73
2018-07-07T06:46:35.831Z,77.09
2018-07-07T06:47:35.837Z,76.32
2018-07-07T06:48:35.839Z,76.32
2018-07-07T06:49:35.841Z,76.14
2018-07-07T06:50:35.848Z,75.07
2018-07-07T06:51:35.851Z,73.73
2018-07-07T06:52:35.855Z,73.54
2018-07-07T06:53:35.871Z,73.44
2018-07-07T06:54:35.862Z,75.17
2018-07-07T06:55:35.867Z,75.27
2018-07-07T06:56:35.871Z,74.79
2018-07-07T06:57:35.873Z,75.46
2018-07-07T06:58:35.880Z,75.62
2018-07-07T06:59:35.919Z,75.46
2018-07-07T07:00:35.888Z,75.46
2018-07-07T07:01:35.889Z,75.37
2018-07-07T07:02:35.918Z,74.98
2018-07-07T07:03:35.898Z,75.65
2018-07-07T07:04:35.904Z,75.75
2018-07-07T07:05:35.905Z,75.07
2018-07-07T07:06:35.962Z,74.88
2018-07-07T07:07:35.916Z,75.46
2018-07-07T07:08:35.920Z,74.54
2018-07-07T07:09:35.926Z,74.25
2018-07-07T07:10:35.927Z,73.19
2018-07-07T07:11:35.931Z,72.52
2018-07-07T07:12:35.935Z,71.84
2018-07-07T07:13:35.939Z,71.65
2018-07-07T07:14:35.943Z,72.32
2018-07-07T07:15:35.949Z,71.94
2018-07-07T07:16:35.951Z,70.43
2018-07-07T07:17:35.955Z,69.28
2018-07-07T07:18:35.962Z,68.41
2018-07-07T07:19:35.968Z,70.43
2018-07-07T07:20:35.970Z,70.72
2018-07-07T07:21:35.975Z,69.76
2018-07-07T07:22:35.977Z,66.97
2018-07-07T07:23:35.985Z,66.01
2018-07-07T07:24:35.986Z,64.86
2018-07-07T07:25:35.989Z,65.91
2018-07-07T07:26:35.996Z,67.07
2018-07-07T07:27:35.999Z,66.62
2018-07-07T07:28:36.004Z,67.77
2018-07-07T07:29:36.009Z,66.14
2018-07-07T07:30:36.013Z,65.98
2018-07-07T07:31:36.017Z,65.56
2018-07-07T07:32:36.030Z,66.24
2018-07-07T07:33:36.027Z,66.14
2018-07-07T07:34:36.032Z,66.07
2018-07-07T07:35:36.036Z,64.37
2018-07-07T07:36:36.042Z,62.35
2018-07-07T07:37:36.048Z,62.09
2018-07-07T07:38:36.054Z,60.22
2018-07-07T07:39:36.060Z,57.77
2018-07-07T07:40:36.065Z,54.83
2018-07-07T07:41:36.074Z,51.64
2018-07-07T07:42:36.083Z,50.60
2018-07-07T07:43:36.090Z,50.62
2018-07-07T07:44:36.098Z,50.62
2018-07-07T07:45:36.111Z,50.09
2018-07-07T07:46:36.120Z,48.44
2018-07-07T07:47:36.131Z,47.52
2018-07-07T07:48:36.138Z,47.40
2018-07-07T07:49:36.149Z,47.89
2018-07-07T07:50:36.160Z,47.40
2018-07-07T07:51:36.173Z,47.30
2018-07-07T07:52:36.182Z,47.30
2018-07-07T07:53:36.195Z,47.30
2018-07-07T07:54:36.209Z,47.81
2018-07-07T07:55:36.223Z,46.84
2018-07-07T07:56:36.235Z,46.92
2018-07-07T07:57:36.247Z,47.40
2018-07-07T07:58:36.262Z,47.42
2018-07-07T07:59:36.279Z,47.25
2018-07-07T08:00:36.289Z,46.67
2018-07-07T08:01:36.304Z,45.61
2018-07-07T08:02:36.319Z,44.46
2018-07-07T08:03:36.333Z,44.19
2018-07-07T08:04:36.347Z,43.95
2018-07-07T08:05:36.362Z,43.78
2018-07-07T08:06:36.375Z,44.42
2018-07-07T08:07:36.392Z,44.54
2018-07-07T08:08:36.407Z,44.07
2018-07-07T08:09:36.421Z,42.87
2018-07-07T08:10:36.437Z,41.14
2018-07-07T08:11:36.452Z,40.66
2018-07-07T08:12:36.467Z,41.05
2018-07-07T08:13:36.482Z,44.47
2018-07-07T08:14:36.497Z,44.78
2018-07-07T08:15:36.513Z,43.86
2018-07-07T08:16:36.528Z,43.30
2018-07-07T08:17:36.544Z,42.56
2018-07-07T08:18:36.559Z,41.96
2018-07-07T08:19:36.574Z,43.08
2018-07-07T08:20:36.591Z,44.15
2018-07-07T08:21:36.605Z,44.54
2018-07-07T08:22:36.648Z,44.64
2018-07-07T08:23:36.636Z,44.19
2018-07-07T08:24:36.651Z,42.93
2018-07-07T08:25:36.668Z,42.95
2018-07-07T08:26:36.683Z,43.32
2018-07-07T08:27:36.698Z,43.68
2018-07-07T08:28:36.713Z,44.73
2018-07-07T08:29:36.729Z,44.65
2018-07-07T08:30:36.744Z,42.95
2018-07-07T08:31:36.760Z,42.19
2018-07-07T08:32:36.775Z,41.55
2018-07-07T08:33:36.789Z,40.42
2018-07-07T08:34:36.806Z,39.37
2018-07-07T08:35:36.822Z,38.81
2018-07-07T08:36:36.836Z,38.04
2018-07-07T08:37:36.852Z,37.29
2018-07-07T08:38:36.869Z,36.68
2018-07-07T08:39:36.884Z,37.52
2018-07-07T08:40:36.900Z,38.59
2018-07-07T08:41:36.917Z,38.01
2018-07-07T08:42:36.932Z,37.33
2018-07-07T08:43:36.949Z,37.31
2018-07-07T08:44:36.961Z,37.89
2018-07-07T08:45:36.979Z,37.04
2018-07-07T08:46:36.996Z,36.74
2018-07-07T08:47:37.013Z,37.58
2018-07-07T08:48:37.074Z,39.20
2018-07-07T08:49:37.044Z,39.22
2018-07-07T08:50:37.062Z,39.29
2018-07-07T08:51:37.084Z,40.23
2018-07-07T08:52:37.093Z,41.10
2018-07-07T08:53:37.108Z,40.83
2018-07-07T08:54:37.126Z,39.88
2018-07-07T08:55:37.143Z,40.37
2018-07-07T08:56:37.161Z,39.82
2018-07-07T08:57:37.174Z,39.31
2018-07-07T08:58:37.190Z,39.62
2018-07-07T08:59:37.207Z,39.16
2018-07-07T09:00:37.223Z,38.30
2018-07-07T09:01:37.239Z,37.93
2018-07-07T09:02:37.255Z,36.51
2018-07-07T09:03:37.272Z,35.64
2018-07-07T09:04:37.287Z,35.66
2018-07-07T09:05:37.305Z,35.17
2018-07-07T09:06:37.323Z,34.88
2018-07-07T09:07:37.384Z,35.58
2018-07-07T09:08:37.356Z,35.55
2018-07-07T09:09:37.370Z,35.43
2018-07-07T09:10:37.386Z,35.82
2018-07-07T09:11:37.403Z,36.08
2018-07-07T09:12:37.417Z,37.15
2018-07-07T09:13:37.437Z,36.47
2018-07-07T09:14:37.453Z,36.65
2018-07-07T09:15:37.475Z,36.78
2018-07-07T09:16:37.486Z,37.07
2018-07-07T09:17:37.502Z,35.84
2018-07-07T09:18:37.519Z,35.35
2018-07-07T09:19:37.535Z,35.84
2018-07-07T09:20:37.552Z,35.71
2018-07-07T09:21:37.574Z,36.98
2018-07-07T09:22:37.588Z,37.27
2018-07-07T09:23:37.604Z,39.78
2018-07-07T09:24:37.655Z,40.93
2018-07-07T09:25:37.635Z,40.83
2018-07-07T09:26:37.652Z,40.08
2018-07-07T09:27:37.670Z,41.14
2018-07-07T09:28:37.688Z,40.75
2018-07-07T09:29:37.702Z,40.34
2018-07-07T09:30:37.719Z,40.19
2018-07-07T09:31:37.734Z,39.34
2018-07-07T09:32:37.751Z,38.75
2018-07-07T09:33:37.765Z,40.00
2018-07-07T09:34:37.784Z,39.45
2018-07-07T09:35:37.800Z,38.67
2018-07-07T09:36:37.816Z,38.48
2018-07-07T09:37:37.832Z,38.18
2018-07-07T09:38:37.848Z,38.38
2018-07-07T09:39:37.863Z,38.18
2018-07-07T09:40:37.878Z,38.10
2018-07-07T09:41:37.895Z,37.17
2018-07-07T09:42:37.912Z,36.49
2018-07-07T09:43:37.928Z,37.87
2018-07-07T09:44:37.944Z,38.57
2018-07-07T09:45:37.961Z,38.10
2018-07-07T09:46:37.976Z,39.12
2018-07-07T09:47:37.996Z,39.98
2018-07-07T09:48:38.007Z,39.80
2018-07-07T09:49:38.026Z,39.06
2018-07-07T09:50:38.042Z,38.40
2018-07-07T09:51:38.056Z,37.73
2018-07-07T09:52:38.072Z,36.60
2018-07-07T09:53:38.089Z,37.13
2018-07-07T09:54:38.104Z,37.89
2018-07-07T09:55:38.121Z,39.41
2018-07-07T09:56:38.136Z,39.78
2018-07-07T09:57:38.152Z,39.12
2018-07-07T09:58:38.168Z,38.10
2018-07-07T09:59:38.184Z,37.35
2018-07-07T10:00:38.200Z,36.70
2018-07-07T10:01:38.216Z,36.00
2018-07-07T10:02:38.232Z,36.65
2018-07-07T10:03:38.247Z,38.44
2018-07-07T10:04:38.266Z,39.69
2018-07-07T10:05:38.280Z,39.51
2018-07-07T10:06:38.295Z,39.31
2018-07-07T10:07:38.364Z,39.61
2018-07-07T10:08:38.326Z,38.95
2018-07-07T10:09:38.342Z,38.56
2018-07-07T10:10:38.357Z,39.43
2018-07-07T10:11:38.373Z,39.51
2018-07-07T10:12:38.388Z,39.59
2018-07-07T10:13:38.404Z,40.06
2018-07-07T10:14:38.420Z,41.13
2018-07-07T10:15:38.437Z,40.66
2018-07-07T10:16:38.451Z,39.49
2018-07-07T10:17:38.468Z,41.03
2018-07-07T10:18:38.485Z,40.93
2018-07-07T10:19:38.498Z,40.37
2018-07-07T10:20:38.574Z,40.93
2018-07-07T10:21:38.530Z,40.37
2018-07-07T10:22:38.545Z,40.06
2018-07-07T10:23:38.565Z,40.72
2018-07-07T10:24:38.575Z,42.15
2018-07-07T10:25:38.592Z,40.54
2018-07-07T10:26:38.606Z,39.41
2018-07-07T10:27:38.621Z,38.67
2018-07-07T10:28:38.634Z,37.81
2018-07-07T10:29:38.653Z,36.37
2018-07-07T10:30:38.665Z,35.98
2018-07-07T10:31:38.778Z,36.43
2018-07-07T10:32:38.694Z,36.25
2018-07-07T10:33:38.710Z,35.90
2018-07-07T10:34:38.725Z,35.73
2018-07-07T10:35:38.741Z,37.95
2018-07-07T10:36:38.756Z,38.24
2018-07-07T10:37:38.771Z,38.57
2018-07-07T10:38:38.785Z,37.31
2018-07-07T10:39:38.804Z,36.90
2018-07-07T10:40:38.814Z,37.76
2018-07-07T10:41:38.829Z,37.29
2018-07-07T10:42:38.847Z,37.68
2018-07-07T10:43:38.883Z,37.58
2018-07-07T10:44:38.875Z,39.00
2018-07-07T10:45:38.970Z,38.89
2018-07-07T10:46:38.903Z,39.18
2018-07-07T10:47:38.921Z,38.91
2018-07-07T10:48:38.933Z,38.34
2018-07-07T10:49:38.948Z,38.62
2018-07-07T10:50:38.964Z,38.34
2018-07-07T10:51:38.978Z,37.10
2018-07-07T10:52:38.992Z,36.24
2018-07-07T10:53:39.006Z,36.88
2018-07-07T10:54:39.021Z,37.95
2018-07-07T10:55:39.121Z,38.56
2018-07-07T10:56:39.048Z,37.89
2018-07-07T10:57:39.069Z,38.64
2018-07-07T10:58:39.082Z,38.93
2018-07-07T10:59:39.092Z,38.36
2018-07-07T11:00:39.107Z,37.60
2018-07-07T11:01:39.122Z,38.24
2018-07-07T11:02:39.176Z,37.18
2018-07-07T11:03:39.151Z,37.97
2018-07-07T11:04:39.165Z,36.88
2018-07-07T11:05:39.179Z,38.40
2018-07-07T11:06:39.195Z,38.71
2018-07-07T11:07:39.208Z,39.08
2018-07-07T11:08:39.220Z,38.87
2018-07-07T11:09:39.234Z,39.94
2018-07-07T11:10:39.250Z,39.75
2018-07-07T11:11:39.306Z,38.98
2018-07-07T11:12:39.276Z,38.62
2018-07-07T11:13:39.289Z,38.50
2018-07-07T11:14:39.304Z,38.96
2018-07-07T11:15:39.322Z,40.48
2018-07-07T11:16:39.333Z,41.24
2018-07-07T11:17:39.345Z,42.13
2018-07-07T11:18:39.361Z,41.94
2018-07-07T11:19:39.373Z,41.74
2018-07-07T11:20:39.388Z,42.23
2018-07-07T11:21:39.400Z,42.33
2018-07-07T11:22:39.413Z,42.50
2018-07-07T11:23:39.425Z,42.67
2018-07-07T11:24:39.437Z,42.57
2018-07-07T11:25:39.451Z,42.69
2018-07-07T11:26:39.465Z,42.86
2018-07-07T11:27:39.478Z,44.57
2018-07-07T11:28:39.490Z,44.18
2018-07-07T11:29:39.530Z,44.57
2018-07-07T11:30:39.515Z,44.57
2018-07-07T11:31:39.526Z,44.47
2018-07-07T11:32:39.539Z,44.47
2018-07-07T11:33:39.551Z,44.49
2018-07-07T11:34:39.563Z,43.74
2018-07-07T11:35:39.576Z,43.60
2018-07-07T11:36:39.782Z,44.45
2018-07-07T11:37:39.599Z,44.76
2018-07-07T11:38:39.611Z,44.09
2018-07-07T11:39:39.623Z,44.16
2018-07-07T11:40:39.633Z,44.45
2018-07-07T11:41:39.644Z,44.96
2018-07-07T11:42:39.659Z,44.67
2018-07-07T11:43:39.669Z,44.64
2018-07-07T11:44:39.677Z,44.76
2018-07-07T11:45:39.687Z,44.49
2018-07-07T11:46:39.699Z,44.49
2018-07-07T11:47:39.709Z,43.64
2018-07-07T11:48:39.719Z,43.54
2018-07-07T11:49:39.730Z,42.75
2018-07-07T11:50:39.744Z,43.62
2018-07-07T11:51:39.751Z,43.89
2018-07-07T11:52:39.760Z,44.27
2018-07-07T11:53:39.772Z,44.47
2018-07-07T11:54:39.783Z,44.57
2018-07-07T11:55:39.793Z,44.86
2018-07-07T11:56:39.803Z,44.88
2018-07-07T11:57:39.813Z,44.88
2018-07-07T11:58:39.824Z,44.40
2018-07-07T11:59:39.834Z,44.27
2018-07-07T12:00:39.844Z,45.22
2018-07-07T12:01:39.853Z,45.34
2018-07-07T12:02:39.866Z,45.34
2018-07-07T12:03:39.874Z,45.54
2018-07-07T12:04:40.034Z,46.00
2018-07-07T12:05:39.894Z,46.08
2018-07-07T12:06:39.904Z,46.08
2018-07-07T12:07:39.914Z,46.17
2018-07-07T12:08:39.923Z,46.26
2018-07-07T12:09:39.932Z,46.66
2018-07-07T12:10:39.944Z,46.87
2018-07-07T12:11:40.019Z,46.22
2018-07-07T12:12:39.962Z,46.12
2018-07-07T12:13:39.971Z,46.12
2018-07-07T12:14:39.981Z,46.22
2018-07-07T12:15:39.992Z,46.02
2018-07-07T12:16:40.000Z,46.29
2018-07-07T12:17:40.009Z,47.06
2018-07-07T12:18:40.021Z,47.19
2018-07-07T12:19:40.029Z,46.89
2018-07-07T12:20:40.038Z,45.92
2018-07-07T12:21:40.047Z,46.48
2018-07-07T12:22:40.058Z,46.58
2018-07-07T12:23:40.066Z,46.77
2018-07-07T12:24:40.077Z,46.97
2018-07-07T12:25:40.084Z,46.51
2018-07-07T12:26:40.094Z,45.95
2018-07-07T12:27:40.103Z,45.07
2018-07-07T12:28:40.113Z,45.20
2018-07-07T12:29:40.121Z,44.78
2018-07-07T12:30:40.129Z,45.83
2018-07-07T12:31:40.140Z,46.31
2018-07-07T12:32:40.149Z,46.31
2018-07-07T12:33:40.156Z,46.31
2018-07-07T12:34:40.166Z,46.33
2018-07-07T12:35:40.177Z,45.47
2018-07-07T12:36:40.206Z,45.56
2018-07-07T12:37:40.193Z,45.92
2018-07-07T12:38:40.202Z,46.58
2018-07-07T12:39:40.211Z,46.87
2018-07-07T12:40:40.223Z,46.89
2018-07-07T12:41:40.229Z,46.87
2018-07-07T12:42:40.239Z,46.70
2018-07-07T12:43:40.290Z,46.70
2018-07-07T12:44:40.298Z,46.99
2018-07-07T12:45:40.264Z,47.67
2018-07-07T12:46:40.274Z,46.51
2018-07-07T12:47:40.282Z,46.41
2018-07-07T12:48:40.290Z,46.31
2018-07-07T12:49:40.303Z,47.16
2018-07-07T12:50:40.309Z,47.38
2018-07-07T12:51:40.319Z,47.47
2018-07-07T12:52:40.328Z,46.41